Round Rock, Arizona
Current Conditions -  °F | °C
As of 7:53 PM on Sunday 23 Nov 2014 (Local Time) from KFMN Reporting Station
Clear Clear  
Wind Chill: 26°   Ceiling: Unl
Heat Index: 31°   Visibility: 10mi
Dew Point: 15°   Wind: 5mph
Humidity: 52%   Direction: 280°W
Pressure: 30.09"   Gusts: NA
Location:  36.51°N, 109.47°W
Report Text: KFMN 240253Z 28004KT 10SM CLR M01/M09 A3009 RMK AO2 SLP201 T10061094 51031
Loading
Personal Weather Stations






























Interactive Weather Map New forecast layout! Learn more

10-Day Weather Forecast

Advertisements
Track Severe Weather on mobile